sensor_id;sensor_type;location;lat;lon;timestamp;P1;durP1;ratioP1;P2;durP2;ratioP2
28613;SDS011;15806;53.548;9.964;2023-02-11T00:01:25;44.03;;;15.37;;
28613;SDS011;15806;53.548;9.964;2023-02-11T00:03:10;40.72;;;13.82;;
28613;SDS011;15806;53.548;9.964;2023-02-11T00:04:51;39.50;;;14.57;;
28613;SDS011;15806;53.548;9.964;2023-02-11T00:06:32;41.03;;;14.23;;
28613;SDS011;15806;53.548;9.964;2023-02-11T00:08:14;36.63;;;13.65;;
28613;SDS011;15806;53.548;9.964;2023-02-11T00:09:54;43.33;;;14.10;;
28613;SDS011;15806;53.548;9.964;2023-02-11T00:11:35;42.07;;;13.87;;
28613;SDS011;15806;53.548;9.964;2023-02-11T00:13:15;35.10;;;13.17;;
28613;SDS011;15806;53.548;9.964;2023-02-11T00:14:56;45.70;;;14.77;;
28613;SDS011;15806;53.548;9.964;2023-02-11T00:16:36;42.63;;;13.97;;
28613;SDS011;15806;53.548;9.964;2023-02-11T00:18:17;31.83;;;11.33;;
28613;SDS011;15806;53.548;9.964;2023-02-11T00:19:58;40.73;;;13.37;;
28613;SDS011;15806;53.548;9.964;2023-02-11T00:21:39;39.87;;;14.73;;
28613;SDS011;15806;53.548;9.964;2023-02-11T00:23:19;42.97;;;11.63;;
28613;SDS011;15806;53.548;9.964;2023-02-11T00:25:00;45.37;;;16.63;;
28613;SDS011;15806;53.548;9.964;2023-02-11T00:26:40;43.17;;;15.80;;
28613;SDS011;15806;53.548;9.964;2023-02-11T00:28:21;43.20;;;13.67;;
28613;SDS011;15806;53.548;9.964;2023-02-11T00:30:01;42.00;;;16.50;;
28613;SDS011;15806;53.548;9.964;2023-02-11T00:31:42;57.85;;;18.48;;
28613;SDS011;15806;53.548;9.964;2023-02-11T00:33:23;48.07;;;15.20;;
28613;SDS011;15806;53.548;9.964;2023-02-11T00:35:03;50.93;;;16.70;;
28613;SDS011;15806;53.548;9.964;2023-02-11T00:36:45;63.58;;;17.77;;
28613;SDS011;15806;53.548;9.964;2023-02-11T00:38:25;34.97;;;11.80;;
28613;SDS011;15806;53.548;9.964;2023-02-11T00:40:06;42.00;;;16.47;;
28613;SDS011;15806;53.548;9.964;2023-02-11T00:41:47;46.05;;;15.93;;
28613;SDS011;15806;53.548;9.964;2023-02-11T00:43:27;42.67;;;15.23;;
28613;SDS011;15806;53.548;9.964;2023-02-11T00:45:08;41.07;;;15.23;;
28613;SDS011;15806;53.548;9.964;2023-02-11T00:46:49;43.33;;;14.23;;
28613;SDS011;15806;53.548;9.964;2023-02-11T00:48:29;45.67;;;14.47;;
28613;SDS011;15806;53.548;9.964;2023-02-11T00:50:10;49.75;;;14.65;;
28613;SDS011;15806;53.548;9.964;2023-02-11T00:51:51;38.97;;;13.93;;
28613;SDS011;15806;53.548;9.964;2023-02-11T00:53:31;49.57;;;15.17;;
28613;SDS011;15806;53.548;9.964;2023-02-11T00:55:12;39.35;;;13.93;;
28613;SDS011;15806;53.548;9.964;2023-02-11T00:56:54;46.05;;;15.50;;
28613;SDS011;15806;53.548;9.964;2023-02-11T00:58:35;42.90;;;15.00;;
28613;SDS011;15806;53.548;9.964;2023-02-11T01:00:15;56.80;;;17.15;;
28613;SDS011;15806;53.548;9.964;2023-02-11T01:01:56;44.97;;;15.37;;
28613;SDS011;15806;53.548;9.964;2023-02-11T01:03:36;44.40;;;15.37;;
28613;SDS011;15806;53.548;9.964;2023-02-11T01:05:18;41.10;;;14.27;;
28613;SDS011;15806;53.548;9.964;2023-02-11T01:06:59;57.40;;;15.68;;
28613;SDS011;15806;53.548;9.964;2023-02-11T01:08:39;40.00;;;12.67;;
28613;SDS011;15806;53.548;9.964;2023-02-11T01:10:20;38.07;;;14.20;;
28613;SDS011;15806;53.548;9.964;2023-02-11T01:12:00;41.13;;;13.60;;
28613;SDS011;15806;53.548;9.964;2023-02-11T01:13:41;41.67;;;14.33;;
28613;SDS011;15806;53.548;9.964;2023-02-11T01:15:22;42.60;;;14.88;;
28613;SDS011;15806;53.548;9.964;2023-02-11T01:17:04;41.93;;;15.50;;
28613;SDS011;15806;53.548;9.964;2023-02-11T01:18:45;45.22;;;14.55;;
28613;SDS011;15806;53.548;9.964;2023-02-11T01:20:26;43.92;;;14.73;;
28613;SDS011;15806;53.548;9.964;2023-02-11T01:22:07;49.33;;;16.42;;
28613;SDS011;15806;53.548;9.964;2023-02-11T01:23:47;45.33;;;15.43;;
28613;SDS011;15806;53.548;9.964;2023-02-11T01:25:28;36.13;;;15.10;;
28613;SDS011;15806;53.548;9.964;2023-02-11T01:27:08;42.00;;;15.10;;
28613;SDS011;15806;53.548;9.964;2023-02-11T01:28:49;50.53;;;15.23;;
28613;SDS011;15806;53.548;9.964;2023-02-11T01:30:30;43.47;;;14.17;;
28613;SDS011;15806;53.548;9.964;2023-02-11T01:32:10;39.17;;;15.27;;
28613;SDS011;15806;53.548;9.964;2023-02-11T01:33:51;45.77;;;15.80;;
28613;SDS011;15806;53.548;9.964;2023-02-11T01:35:34;51.30;;;14.25;;
28613;SDS011;15806;53.548;9.964;2023-02-11T01:37:16;45.10;;;15.90;;
28613;SDS011;15806;53.548;9.964;2023-02-11T01:38:57;47.80;;;15.00;;
28613;SDS011;15806;53.548;9.964;2023-02-11T01:40:37;41.83;;;14.47;;
28613;SDS011;15806;53.548;9.964;2023-02-11T01:42:18;31.27;;;12.93;;
28613;SDS011;15806;53.548;9.964;2023-02-11T01:47:59;47.58;;;15.43;;
28613;SDS011;15806;53.548;9.964;2023-02-11T01:49:41;49.27;;;16.17;;
28613;SDS011;15806;53.548;9.964;2023-02-11T01:51:30;48.85;;;16.90;;
28613;SDS011;15806;53.548;9.964;2023-02-11T01:53:17;43.10;;;16.08;;
28613;SDS011;15806;53.548;9.964;2023-02-11T01:54:59;46.28;;;15.60;;
28613;SDS011;15806;53.548;9.964;2023-02-11T01:56:45;46.22;;;14.90;;
28613;SDS011;15806;53.548;9.964;2023-02-11T01:58:28;51.13;;;16.75;;
28613;SDS011;15806;53.548;9.964;2023-02-11T02:00:34;45.63;;;14.95;;
28613;SDS011;15806;53.548;9.964;2023-02-11T02:02:18;49.38;;;16.40;;
28613;SDS011;15806;53.548;9.964;2023-02-11T02:04:04;44.08;;;15.15;;
28613;SDS011;15806;53.548;9.964;2023-02-11T02:07:33;51.65;;;18.38;;
28613;SDS011;15806;53.548;9.964;2023-02-11T02:09:24;51.42;;;15.00;;
28613;SDS011;15806;53.548;9.964;2023-02-11T02:11:08;46.95;;;15.20;;
28613;SDS011;15806;53.548;9.964;2023-02-11T02:12:49;42.88;;;15.02;;
28613;SDS011;15806;53.548;9.964;2023-02-11T02:14:29;55.47;;;17.03;;
28613;SDS011;15806;53.548;9.964;2023-02-11T02:16:11;41.80;;;14.40;;
28613;SDS011;15806;53.548;9.964;2023-02-11T02:17:57;53.63;;;16.67;;
28613;SDS011;15806;53.548;9.964;2023-02-11T02:20:02;46.42;;;15.10;;
28613;SDS011;15806;53.548;9.964;2023-02-11T02:26:33;55.25;;;15.45;;
28613;SDS011;15806;53.548;9.964;2023-02-11T02:31:58;49.33;;;15.03;;
28613;SDS011;15806;53.548;9.964;2023-02-11T02:34:12;47.45;;;15.57;;
28613;SDS011;15806;53.548;9.964;2023-02-11T02:38:12;48.00;;;15.65;;
28613;SDS011;15806;53.548;9.964;2023-02-11T02:40:00;47.92;;;14.70;;
28613;SDS011;15806;53.548;9.964;2023-02-11T02:41:50;41.78;;;13.50;;
28613;SDS011;15806;53.548;9.964;2023-02-11T02:43:32;37.58;;;14.23;;
28613;SDS011;15806;53.548;9.964;2023-02-11T02:45:15;34.33;;;14.40;;
28613;SDS011;15806;53.548;9.964;2023-02-11T02:46:55;42.13;;;13.40;;
28613;SDS011;15806;53.548;9.964;2023-02-11T02:48:36;47.72;;;14.68;;
28613;SDS011;15806;53.548;9.964;2023-02-11T02:50:18;41.03;;;13.10;;
28613;SDS011;15806;53.548;9.964;2023-02-11T02:52:45;46.00;;;13.00;;
28613;SDS011;15806;53.548;9.964;2023-02-11T03:07:26;36.90;;;13.50;;
28613;SDS011;15806;53.548;9.964;2023-02-11T03:09:44;39.30;;;12.15;;
28613;SDS011;15806;53.548;9.964;2023-02-11T03:11:19;33.38;;;12.30;;
28613;SDS011;15806;53.548;9.964;2023-02-11T03:13:01;39.95;;;13.52;;
28613;SDS011;15806;53.548;9.964;2023-02-11T03:14:43;39.40;;;13.38;;
28613;SDS011;15806;53.548;9.964;2023-02-11T03:16:26;44.03;;;12.32;;
28613;SDS011;15806;53.548;9.964;2023-02-11T03:18:08;48.65;;;15.48;;
28613;SDS011;15806;53.548;9.964;2023-02-11T03:19:52;42.22;;;12.77;;
28613;SDS011;15806;53.548;9.964;2023-02-11T03:23:29;42.72;;;11.43;;
28613;SDS011;15806;53.548;9.964;2023-02-11T03:25:15;30.95;;;11.32;;
28613;SDS011;15806;53.548;9.964;2023-02-11T03:26:56;36.50;;;11.97;;
28613;SDS011;15806;53.548;9.964;2023-02-11T03:30:52;38.58;;;12.10;;
28613;SDS011;15806;53.548;9.964;2023-02-11T03:32:42;50.08;;;13.60;;
28613;SDS011;15806;53.548;9.964;2023-02-11T03:34:42;46.33;;;12.07;;
28613;SDS011;15806;53.548;9.964;2023-02-11T03:36:33;35.10;;;11.88;;
28613;SDS011;15806;53.548;9.964;2023-02-11T03:38:21;41.38;;;12.85;;
28613;SDS011;15806;53.548;9.964;2023-02-11T03:40:06;40.90;;;13.98;;
28613;SDS011;15806;53.548;9.964;2023-02-11T03:41:52;44.20;;;12.73;;
28613;SDS011;15806;53.548;9.964;2023-02-11T03:43:36;36.35;;;11.77;;
28613;SDS011;15806;53.548;9.964;2023-02-11T03:45:21;35.38;;;11.88;;
28613;SDS011;15806;53.548;9.964;2023-02-11T03:47:03;38.25;;;11.35;;
28613;SDS011;15806;53.548;9.964;2023-02-11T03:48:49;36.95;;;12.57;;
28613;SDS011;15806;53.548;9.964;2023-02-11T03:50:33;30.30;;;9.93;;
28613;SDS011;15806;53.548;9.964;2023-02-11T03:52:16;38.03;;;11.52;;
28613;SDS011;15806;53.548;9.964;2023-02-11T03:54:01;36.17;;;11.07;;
28613;SDS011;15806;53.548;9.964;2023-02-11T03:55:45;37.67;;;10.52;;
28613;SDS011;15806;53.548;9.964;2023-02-11T03:57:28;32.33;;;11.13;;
28613;SDS011;15806;53.548;9.964;2023-02-11T03:59:09;37.53;;;9.93;;
28613;SDS011;15806;53.548;9.964;2023-02-11T04:00:49;32.77;;;10.00;;
28613;SDS011;15806;53.548;9.964;2023-02-11T04:02:30;36.43;;;10.40;;
28613;SDS011;15806;53.548;9.964;2023-02-11T04:04:13;42.60;;;12.55;;
28613;SDS011;15806;53.548;9.964;2023-02-11T04:05:54;47.97;;;12.67;;
28613;SDS011;15806;53.548;9.964;2023-02-11T04:07:34;43.80;;;12.47;;
28613;SDS011;15806;53.548;9.964;2023-02-11T04:09:15;32.07;;;10.90;;
28613;SDS011;15806;53.548;9.964;2023-02-11T04:10:56;42.53;;;12.57;;
28613;SDS011;15806;53.548;9.964;2023-02-11T04:12:36;34.43;;;10.60;;
28613;SDS011;15806;53.548;9.964;2023-02-11T04:14:17;31.70;;;10.07;;
28613;SDS011;15806;53.548;9.964;2023-02-11T04:15:57;35.80;;;10.23;;
28613;SDS011;15806;53.548;9.964;2023-02-11T04:17:38;28.30;;;11.70;;
28613;SDS011;15806;53.548;9.964;2023-02-11T04:19:18;36.73;;;10.23;;
28613;SDS011;15806;53.548;9.964;2023-02-11T04:20:59;29.50;;;10.40;;
28613;SDS011;15806;53.548;9.964;2023-02-11T04:22:39;33.67;;;9.67;;
28613;SDS011;15806;53.548;9.964;2023-02-11T04:24:20;34.03;;;9.87;;
28613;SDS011;15806;53.548;9.964;2023-02-11T04:26:00;27.63;;;9.60;;
28613;SDS011;15806;53.548;9.964;2023-02-11T04:27:41;37.33;;;11.67;;
28613;SDS011;15806;53.548;9.964;2023-02-11T04:29:21;25.10;;;8.63;;
28613;SDS011;15806;53.548;9.964;2023-02-11T04:31:02;32.87;;;8.70;;
28613;SDS011;15806;53.548;9.964;2023-02-11T04:32:43;23.70;;;8.97;;
28613;SDS011;15806;53.548;9.964;2023-02-11T04:34:23;35.70;;;8.57;;
28613;SDS011;15806;53.548;9.964;2023-02-11T04:36:04;35.67;;;9.43;;
28613;SDS011;15806;53.548;9.964;2023-02-11T04:37:45;23.77;;;7.77;;
28613;SDS011;15806;53.548;9.964;2023-02-11T04:39:25;38.67;;;11.47;;
28613;SDS011;15806;53.548;9.964;2023-02-11T04:41:06;33.60;;;10.37;;
28613;SDS011;15806;53.548;9.964;2023-02-11T04:42:46;19.90;;;7.77;;
28613;SDS011;15806;53.548;9.964;2023-02-11T04:44:27;23.30;;;7.67;;
28613;SDS011;15806;53.548;9.964;2023-02-11T04:46:07;32.53;;;7.83;;
28613;SDS011;15806;53.548;9.964;2023-02-11T04:47:48;22.07;;;7.23;;
28613;SDS011;15806;53.548;9.964;2023-02-11T04:49:28;32.23;;;8.87;;
28613;SDS011;15806;53.548;9.964;2023-02-11T04:51:09;26.90;;;7.53;;
28613;SDS011;15806;53.548;9.964;2023-02-11T04:52:50;31.23;;;9.07;;
28613;SDS011;15806;53.548;9.964;2023-02-11T04:54:30;24.90;;;8.60;;
28613;SDS011;15806;53.548;9.964;2023-02-11T04:56:11;25.50;;;7.77;;
28613;SDS011;15806;53.548;9.964;2023-02-11T04:57:51;27.00;;;6.97;;
28613;SDS011;15806;53.548;9.964;2023-02-11T04:59:32;30.03;;;8.27;;
28613;SDS011;15806;53.548;9.964;2023-02-11T05:01:13;29.60;;;8.17;;
28613;SDS011;15806;53.548;9.964;2023-02-11T05:02:54;32.70;;;8.82;;
28613;SDS011;15806;53.548;9.964;2023-02-11T05:04:34;27.20;;;8.63;;
28613;SDS011;15806;53.548;9.964;2023-02-11T05:06:15;25.70;;;8.47;;
28613;SDS011;15806;53.548;9.964;2023-02-11T05:07:56;36.90;;;8.17;;
28613;SDS011;15806;53.548;9.964;2023-02-11T05:09:36;26.63;;;8.57;;
28613;SDS011;15806;53.548;9.964;2023-02-11T05:11:18;31.40;;;8.60;;
28613;SDS011;15806;53.548;9.964;2023-02-11T05:13:00;20.55;;;7.15;;
28613;SDS011;15806;53.548;9.964;2023-02-11T05:14:41;24.03;;;8.30;;
28613;SDS011;15806;53.548;9.964;2023-02-11T05:16:21;24.27;;;7.80;;
28613;SDS011;15806;53.548;9.964;2023-02-11T05:18:02;25.37;;;8.17;;
28613;SDS011;15806;53.548;9.964;2023-02-11T05:19:42;21.23;;;7.37;;
28613;SDS011;15806;53.548;9.964;2023-02-11T05:21:23;28.73;;;8.23;;
28613;SDS011;15806;53.548;9.964;2023-02-11T05:23:04;32.53;;;8.30;;
28613;SDS011;15806;53.548;9.964;2023-02-11T05:24:44;26.40;;;7.33;;
28613;SDS011;15806;53.548;9.964;2023-02-11T05:26:25;18.13;;;7.30;;
28613;SDS011;15806;53.548;9.964;2023-02-11T05:28:05;25.23;;;7.70;;
28613;SDS011;15806;53.548;9.964;2023-02-11T05:29:46;29.50;;;8.57;;
28613;SDS011;15806;53.548;9.964;2023-02-11T05:31:27;30.57;;;8.60;;
28613;SDS011;15806;53.548;9.964;2023-02-11T05:33:07;22.63;;;7.77;;
28613;SDS011;15806;53.548;9.964;2023-02-11T05:34:48;27.20;;;6.87;;
28613;SDS011;15806;53.548;9.964;2023-02-11T05:36:28;29.30;;;8.90;;
28613;SDS011;15806;53.548;9.964;2023-02-11T05:38:09;20.75;;;6.47;;
28613;SDS011;15806;53.548;9.964;2023-02-11T05:39:50;24.60;;;9.02;;
28613;SDS011;15806;53.548;9.964;2023-02-11T05:41:30;24.70;;;8.43;;
28613;SDS011;15806;53.548;9.964;2023-02-11T05:43:11;28.43;;;7.13;;
28613;SDS011;15806;53.548;9.964;2023-02-11T05:44:51;30.63;;;7.37;;
28613;SDS011;15806;53.548;9.964;2023-02-11T05:46:32;27.87;;;8.77;;
28613;SDS011;15806;53.548;9.964;2023-02-11T05:48:12;29.63;;;7.50;;
28613;SDS011;15806;53.548;9.964;2023-02-11T05:49:53;22.43;;;7.07;;
28613;SDS011;15806;53.548;9.964;2023-02-11T05:51:33;17.63;;;6.33;;
28613;SDS011;15806;53.548;9.964;2023-02-11T05:53:14;23.87;;;7.80;;
28613;SDS011;15806;53.548;9.964;2023-02-11T05:54:54;19.97;;;6.97;;
28613;SDS011;15806;53.548;9.964;2023-02-11T05:56:35;19.83;;;6.80;;
28613;SDS011;15806;53.548;9.964;2023-02-11T05:58:15;26.50;;;8.60;;
28613;SDS011;15806;53.548;9.964;2023-02-11T05:59:56;24.23;;;7.10;;
28613;SDS011;15806;53.548;9.964;2023-02-11T06:01:36;27.57;;;7.57;;
28613;SDS011;15806;53.548;9.964;2023-02-11T06:03:17;22.07;;;7.50;;
28613;SDS011;15806;53.548;9.964;2023-02-11T06:04:57;24.33;;;6.67;;
28613;SDS011;15806;53.548;9.964;2023-02-11T06:06:38;19.27;;;6.80;;
28613;SDS011;15806;53.548;9.964;2023-02-11T06:08:18;15.87;;;6.77;;
28613;SDS011;15806;53.548;9.964;2023-02-11T06:09:59;15.37;;;6.33;;
28613;SDS011;15806;53.548;9.964;2023-02-11T06:11:39;25.07;;;7.73;;
28613;SDS011;15806;53.548;9.964;2023-02-11T06:13:20;19.13;;;6.57;;
28613;SDS011;15806;53.548;9.964;2023-02-11T06:15:00;20.93;;;8.17;;
28613;SDS011;15806;53.548;9.964;2023-02-11T06:16:41;30.50;;;7.90;;
28613;SDS011;15806;53.548;9.964;2023-02-11T06:18:22;21.33;;;7.23;;
28613;SDS011;15806;53.548;9.964;2023-02-11T06:20:03;19.00;;;7.00;;
28613;SDS011;15806;53.548;9.964;2023-02-11T06:21:46;18.15;;;7.78;;
28613;SDS011;15806;53.548;9.964;2023-02-11T06:23:26;28.20;;;8.07;;
28613;SDS011;15806;53.548;9.964;2023-02-11T06:25:07;24.40;;;6.80;;
28613;SDS011;15806;53.548;9.964;2023-02-11T06:26:48;30.02;;;7.53;;
28613;SDS011;15806;53.548;9.964;2023-02-11T06:28:28;18.17;;;6.30;;
28613;SDS011;15806;53.548;9.964;2023-02-11T06:30:09;12.57;;;5.70;;
28613;SDS011;15806;53.548;9.964;2023-02-11T06:31:50;17.67;;;6.40;;
28613;SDS011;15806;53.548;9.964;2023-02-11T06:33:31;24.47;;;7.00;;
28613;SDS011;15806;53.548;9.964;2023-02-11T06:35:13;21.90;;;8.23;;
28613;SDS011;15806;53.548;9.964;2023-02-11T06:36:53;20.55;;;6.65;;
28613;SDS011;15806;53.548;9.964;2023-02-11T06:38:34;22.90;;;7.13;;
28613;SDS011;15806;53.548;9.964;2023-02-11T06:40:14;17.93;;;7.57;;
28613;SDS011;15806;53.548;9.964;2023-02-11T06:41:55;17.03;;;6.90;;
28613;SDS011;15806;53.548;9.964;2023-02-11T06:43:35;24.67;;;7.50;;
28613;SDS011;15806;53.548;9.964;2023-02-11T06:45:16;25.10;;;7.73;;
28613;SDS011;15806;53.548;9.964;2023-02-11T06:46:57;19.20;;;6.03;;
28613;SDS011;15806;53.548;9.964;2023-02-11T06:48:37;23.43;;;7.30;;
28613;SDS011;15806;53.548;9.964;2023-02-11T06:50:18;22.27;;;7.43;;
28613;SDS011;15806;53.548;9.964;2023-02-11T06:51:58;21.60;;;7.60;;
28613;SDS011;15806;53.548;9.964;2023-02-11T06:53:40;18.87;;;7.23;;
28613;SDS011;15806;53.548;9.964;2023-02-11T06:55:22;16.55;;;7.15;;
28613;SDS011;15806;53.548;9.964;2023-02-11T06:57:03;19.97;;;7.67;;
28613;SDS011;15806;53.548;9.964;2023-02-11T06:58:44;15.90;;;6.80;;
28613;SDS011;15806;53.548;9.964;2023-02-11T07:00:25;21.92;;;7.93;;
28613;SDS011;15806;53.548;9.964;2023-02-11T07:02:05;15.33;;;6.23;;
28613;SDS011;15806;53.548;9.964;2023-02-11T07:03:48;21.02;;;6.55;;
28613;SDS011;15806;53.548;9.964;2023-02-11T07:05:29;18.30;;;7.10;;
28613;SDS011;15806;53.548;9.964;2023-02-11T07:07:09;17.07;;;6.93;;
28613;SDS011;15806;53.548;9.964;2023-02-11T07:08:50;17.53;;;6.33;;
28613;SDS011;15806;53.548;9.964;2023-02-11T07:10:30;18.80;;;6.53;;
28613;SDS011;15806;53.548;9.964;2023-02-11T07:12:12;14.05;;;7.05;;
28613;SDS011;15806;53.548;9.964;2023-02-11T07:13:53;16.17;;;6.37;;
28613;SDS011;15806;53.548;9.964;2023-02-11T07:15:36;20.05;;;7.00;;
28613;SDS011;15806;53.548;9.964;2023-02-11T07:17:16;16.87;;;6.90;;
28613;SDS011;15806;53.548;9.964;2023-02-11T07:18:57;19.47;;;7.03;;
28613;SDS011;15806;53.548;9.964;2023-02-11T07:20:37;20.50;;;7.53;;
28613;SDS011;15806;53.548;9.964;2023-02-11T07:22:18;16.80;;;6.27;;
28613;SDS011;15806;53.548;9.964;2023-02-11T07:23:58;25.93;;;9.03;;
28613;SDS011;15806;53.548;9.964;2023-02-11T07:25:39;19.90;;;6.07;;
28613;SDS011;15806;53.548;9.964;2023-02-11T07:27:19;18.80;;;6.93;;
28613;SDS011;15806;53.548;9.964;2023-02-11T07:29:00;17.13;;;6.53;;
28613;SDS011;15806;53.548;9.964;2023-02-11T07:30:41;24.77;;;7.93;;
28613;SDS011;15806;53.548;9.964;2023-02-11T07:32:21;16.20;;;6.67;;
28613;SDS011;15806;53.548;9.964;2023-02-11T07:34:02;24.70;;;7.97;;
28613;SDS011;15806;53.548;9.964;2023-02-11T07:35:42;23.70;;;8.17;;
28613;SDS011;15806;53.548;9.964;2023-02-11T07:37:23;20.03;;;6.93;;
28613;SDS011;15806;53.548;9.964;2023-02-11T07:39:03;21.43;;;7.53;;
28613;SDS011;15806;53.548;9.964;2023-02-11T07:40:44;22.93;;;7.87;;
28613;SDS011;15806;53.548;9.964;2023-02-11T07:42:24;19.83;;;7.33;;
28613;SDS011;15806;53.548;9.964;2023-02-11T07:44:05;22.87;;;7.37;;
28613;SDS011;15806;53.548;9.964;2023-02-11T07:45:46;23.95;;;8.02;;
28613;SDS011;15806;53.548;9.964;2023-02-11T07:47:26;21.73;;;8.47;;
28613;SDS011;15806;53.548;9.964;2023-02-11T07:49:07;17.00;;;7.80;;
28613;SDS011;15806;53.548;9.964;2023-02-11T07:50:47;21.90;;;8.00;;
28613;SDS011;15806;53.548;9.964;2023-02-11T07:52:29;24.83;;;8.03;;
28613;SDS011;15806;53.548;9.964;2023-02-11T07:54:09;28.55;;;7.90;;
28613;SDS011;15806;53.548;9.964;2023-02-11T07:55:50;17.77;;;7.30;;
28613;SDS011;15806;53.548;9.964;2023-02-11T07:57:31;18.20;;;8.03;;
28613;SDS011;15806;53.548;9.964;2023-02-11T07:59:11;21.63;;;7.57;;
28613;SDS011;15806;53.548;9.964;2023-02-11T08:00:52;24.90;;;6.83;;
28613;SDS011;15806;53.548;9.964;2023-02-11T08:02:32;18.37;;;6.57;;
28613;SDS011;15806;53.548;9.964;2023-02-11T08:04:13;20.27;;;7.70;;
28613;SDS011;15806;53.548;9.964;2023-02-11T08:05:53;27.20;;;6.47;;
28613;SDS011;15806;53.548;9.964;2023-02-11T08:07:34;24.47;;;7.13;;
28613;SDS011;15806;53.548;9.964;2023-02-11T08:09:15;29.50;;;8.43;;
28613;SDS011;15806;53.548;9.964;2023-02-11T08:10:55;19.00;;;7.67;;
28613;SDS011;15806;53.548;9.964;2023-02-11T08:12:36;23.03;;;8.17;;
28613;SDS011;15806;53.548;9.964;2023-02-11T08:14:16;25.00;;;7.57;;
28613;SDS011;15806;53.548;9.964;2023-02-11T08:15:57;29.00;;;8.07;;
28613;SDS011;15806;53.548;9.964;2023-02-11T08:17:37;24.93;;;8.37;;
28613;SDS011;15806;53.548;9.964;2023-02-11T08:19:18;19.90;;;7.20;;
28613;SDS011;15806;53.548;9.964;2023-02-11T08:21:03;20.83;;;8.00;;
28613;SDS011;15806;53.548;9.964;2023-02-11T08:22:44;20.40;;;7.68;;
28613;SDS011;15806;53.548;9.964;2023-02-11T08:24:25;18.10;;;7.30;;
28613;SDS011;15806;53.548;9.964;2023-02-11T08:26:06;23.30;;;8.10;;
28613;SDS011;15806;53.548;9.964;2023-02-11T08:27:49;27.27;;;10.07;;
28613;SDS011;15806;53.548;9.964;2023-02-11T08:29:30;22.57;;;7.93;;
28613;SDS011;15806;53.548;9.964;2023-02-11T08:31:17;25.40;;;7.90;;
28613;SDS011;15806;53.548;9.964;2023-02-11T08:33:06;28.55;;;7.72;;
28613;SDS011;15806;53.548;9.964;2023-02-11T08:34:52;28.52;;;7.90;;
28613;SDS011;15806;53.548;9.964;2023-02-11T08:36:34;21.10;;;8.57;;
28613;SDS011;15806;53.548;9.964;2023-02-11T08:38:17;34.75;;;9.38;;
28613;SDS011;15806;53.548;9.964;2023-02-11T08:39:58;21.63;;;8.50;;
28613;SDS011;15806;53.548;9.964;2023-02-11T08:41:38;26.30;;;9.73;;
28613;SDS011;15806;53.548;9.964;2023-02-11T08:43:19;26.47;;;8.10;;
28613;SDS011;15806;53.548;9.964;2023-02-11T08:44:59;18.20;;;6.83;;
28613;SDS011;15806;53.548;9.964;2023-02-11T08:46:40;26.67;;;8.10;;
28613;SDS011;15806;53.548;9.964;2023-02-11T08:48:20;24.70;;;8.37;;
28613;SDS011;15806;53.548;9.964;2023-02-11T08:50:01;23.27;;;8.47;;
28613;SDS011;15806;53.548;9.964;2023-02-11T08:51:43;26.77;;;8.40;;
28613;SDS011;15806;53.548;9.964;2023-02-11T08:53:25;23.45;;;7.60;;
28613;SDS011;15806;53.548;9.964;2023-02-11T08:55:05;20.67;;;7.57;;
28613;SDS011;15806;53.548;9.964;2023-02-11T08:56:49;28.40;;;8.93;;
28613;SDS011;15806;53.548;9.964;2023-02-11T08:58:31;25.63;;;9.20;;
28613;SDS011;15806;53.548;9.964;2023-02-11T09:01:53;19.52;;;7.43;;
28613;SDS011;15806;53.548;9.964;2023-02-11T09:03:34;28.17;;;7.47;;
28613;SDS011;15806;53.548;9.964;2023-02-11T09:05:14;25.67;;;9.17;;
28613;SDS011;15806;53.548;9.964;2023-02-11T09:06:55;25.03;;;7.67;;
28613;SDS011;15806;53.548;9.964;2023-02-11T09:08:37;24.92;;;8.48;;
28613;SDS011;15806;53.548;9.964;2023-02-11T09:10:19;22.05;;;8.32;;
28613;SDS011;15806;53.548;9.964;2023-02-11T09:11:59;28.80;;;10.33;;
28613;SDS011;15806;53.548;9.964;2023-02-11T09:13:41;23.00;;;9.47;;
28613;SDS011;15806;53.548;9.964;2023-02-11T09:15:22;27.25;;;9.15;;
28613;SDS011;15806;53.548;9.964;2023-02-11T09:17:03;28.37;;;10.03;;
28613;SDS011;15806;53.548;9.964;2023-02-11T09:18:43;27.03;;;10.17;;
28613;SDS011;15806;53.548;9.964;2023-02-11T09:20:24;31.55;;;9.18;;
28613;SDS011;15806;53.548;9.964;2023-02-11T09:22:06;29.73;;;10.13;;
28613;SDS011;15806;53.548;9.964;2023-02-11T09:23:47;27.08;;;9.93;;
28613;SDS011;15806;53.548;9.964;2023-02-11T09:25:28;23.85;;;9.52;;
28613;SDS011;15806;53.548;9.964;2023-02-11T09:27:08;23.97;;;9.37;;
28613;SDS011;15806;53.548;9.964;2023-02-11T09:28:49;25.27;;;10.47;;
28613;SDS011;15806;53.548;9.964;2023-02-11T09:30:29;21.00;;;8.87;;
28613;SDS011;15806;53.548;9.964;2023-02-11T09:32:10;30.47;;;10.23;;
28613;SDS011;15806;53.548;9.964;2023-02-11T09:33:52;24.60;;;9.20;;
28613;SDS011;15806;53.548;9.964;2023-02-11T09:35:34;30.10;;;10.55;;
28613;SDS011;15806;53.548;9.964;2023-02-11T09:37:14;28.87;;;8.97;;
28613;SDS011;15806;53.548;9.964;2023-02-11T09:38:56;21.00;;;9.00;;
28613;SDS011;15806;53.548;9.964;2023-02-11T09:40:41;36.42;;;10.60;;
28613;SDS011;15806;53.548;9.964;2023-02-11T09:44:16;25.63;;;9.25;;
28613;SDS011;15806;53.548;9.964;2023-02-11T09:46:14;24.77;;;9.45;;
28613;SDS011;15806;53.548;9.964;2023-02-11T09:50:12;26.90;;;8.75;;
28613;SDS011;15806;53.548;9.964;2023-02-11T09:51:57;26.10;;;8.88;;
28613;SDS011;15806;53.548;9.964;2023-02-11T09:53:43;26.63;;;8.77;;
28613;SDS011;15806;53.548;9.964;2023-02-11T09:55:25;20.23;;;8.93;;
28613;SDS011;15806;53.548;9.964;2023-02-11T09:57:15;21.38;;;7.55;;
28613;SDS011;15806;53.548;9.964;2023-02-11T09:58:55;22.10;;;6.60;;
28613;SDS011;15806;53.548;9.964;2023-02-11T10:00:37;19.50;;;5.67;;
28613;SDS011;15806;53.548;9.964;2023-02-11T10:02:25;19.80;;;6.65;;
28613;SDS011;15806;53.548;9.964;2023-02-11T10:08:08;25.08;;;6.60;;
28613;SDS011;15806;53.548;9.964;2023-02-11T10:13:59;21.08;;;6.97;;
28613;SDS011;15806;53.548;9.964;2023-02-11T10:18:03;18.85;;;5.65;;
28613;SDS011;15806;53.548;9.964;2023-02-11T10:20:17;21.05;;;5.57;;
28613;SDS011;15806;53.548;9.964;2023-02-11T10:22:20;26.02;;;7.35;;
28613;SDS011;15806;53.548;9.964;2023-02-11T10:24:09;17.45;;;5.95;;
28613;SDS011;15806;53.548;9.964;2023-02-11T10:25:54;22.15;;;7.13;;
28613;SDS011;15806;53.548;9.964;2023-02-11T10:27:36;22.50;;;5.97;;
28613;SDS011;15806;53.548;9.964;2023-02-11T10:29:37;22.77;;;6.20;;
28613;SDS011;15806;53.548;9.964;2023-02-11T10:31:24;20.48;;;6.55;;
28613;SDS011;15806;53.548;9.964;2023-02-11T10:34:57;25.63;;;6.05;;
28613;SDS011;15806;53.548;9.964;2023-02-11T10:36:42;19.75;;;6.35;;
28613;SDS011;15806;53.548;9.964;2023-02-11T10:38:23;22.27;;;5.85;;
28613;SDS011;15806;53.548;9.964;2023-02-11T10:40:05;23.23;;;6.97;;
28613;SDS011;15806;53.548;9.964;2023-02-11T10:41:56;24.17;;;5.85;;
28613;SDS011;15806;53.548;9.964;2023-02-11T10:43:41;21.23;;;6.90;;
28613;SDS011;15806;53.548;9.964;2023-02-11T10:45:24;18.65;;;5.47;;
28613;SDS011;15806;53.548;9.964;2023-02-11T10:47:19;19.23;;;5.13;;
28613;SDS011;15806;53.548;9.964;2023-02-11T10:49:02;19.83;;;5.88;;
28613;SDS011;15806;53.548;9.964;2023-02-11T10:50:43;25.07;;;6.73;;
28613;SDS011;15806;53.548;9.964;2023-02-11T10:52:24;17.00;;;5.90;;
28613;SDS011;15806;53.548;9.964;2023-02-11T10:55:51;20.90;;;6.63;;
28613;SDS011;15806;53.548;9.964;2023-02-11T10:59:24;15.17;;;6.50;;